| time (UTC) | temp C | wind direction | speed KPH | gust KPH | rain 1hr cm | rain 24hr cm | rain mn cm | humidity % | barometer mb |
| 20260507144530 | 13 | 302 | 11.3 | 24.1 | 0.00 | 0.00 | 0.00 | 73 | 1013.9 |
| 20260507143026 | 12 | 257 | 9.7 | 19.3 | 0.00 | 0.00 | 0.00 | 74 | 1013.7 |
| 20260507141533 | 12 | 310 | 11.3 | 22.5 | 0.00 | 0.00 | 0.00 | 74 | 1013.5 |
| 20260507140024 | 12 | 347 | 4.8 | 16.1 | 0.00 | 0.00 | 0.00 | 77 | 1013.5 |
| 20260507134521 | 11 | 293 | 6.4 | 17.7 | 0.00 | 0.00 | 0.00 | 77 | 1013.2 |
| 20260507133020 | -17 | 0.0 | 0.0 | 0.00 | 0.00 | 0.00 | 1013.2 | ||
| 20260507131516 | -17 | 0.0 | 0.0 | 0.00 | 0.00 | 0.00 | 1013.0 | ||
| 20260507130013 | -17 | 0.0 | 0.0 | 0.00 | 0.00 | 0.00 | 1012.9 | ||
| 20260507124509 | -17 | 0.0 | 0.0 | 0.00 | 0.00 | 0.00 | 1013.0 | ||
| 20260507123006 | -17 | 0.0 | 0.0 | 0.00 | 0.00 | 0.00 | 1013.0 | ||
| 20260507121603 | -17 | 0.0 | 0.0 | 0.00 | 0.00 | 0.00 | 1013.0 | ||
| 20260507120056 | -17 | 0.0 | 0.0 | 0.00 | 0.00 | 0.00 | 1013.0 | ||
| 20260507114600 | -17 | 0.0 | 0.0 | 0.00 | 0.00 | 0.00 | 1012.9 | ||
| 20260507113046 | -17 | 0.0 | 0.0 | 0.00 | 0.00 | 0.00 | 1013.0 | ||
| 20260507111543 | -17 | 0.0 | 0.0 | 0.00 | 0.00 | 0.00 | 1012.9 | ||
| 20260507110043 | -17 | 0.0 | 0.0 | 0.00 | 0.00 | 0.00 | 1012.9 | ||
| 20260507104533 | -17 | 0.0 | 0.0 | 0.00 | 0.00 | 0.00 | 1012.9 | ||
| 20260507103031 | -17 | 0.0 | 0.0 | 0.00 | 0.00 | 0.00 | 1012.6 | ||
| 20260507101533 | 12 | 283 | 6.4 | 20.9 | 0.00 | 0.00 | 0.00 | 75 | 1012.8 |
| 20260507100023 | 13 | 318 | 1.6 | 11.3 | 0.00 | 0.00 | 0.00 | 76 | 1012.8 |
| 20260507094521 | 13 | 311 | 3.2 | 14.5 | 0.00 | 0.00 | 0.00 | 76 | 1012.7 |
| 20260507093017 | 13 | 269 | 6.4 | 16.1 | 0.00 | 0.00 | 0.00 | 75 | 1012.7 |
| 20260507091518 | 13 | 290 | 3.2 | 11.3 | 0.00 | 0.00 | 0.00 | 75 | 1012.7 |
| 20260507090013 | 13 | 300 | 0.0 | 8.0 | 0.00 | 0.00 | 0.00 | 74 | 1012.8 |
| 20260507084510 | 13 | 308 | 3.2 | 11.3 | 0.00 | 0.00 | 0.00 | 73 | 1012.6 |
| 20260507083007 | 13 | 1 | 6.4 | 16.1 | 0.00 | 0.00 | 0.00 | 72 | 1012.5 |
| 20260507081505 | 13 | 297 | 0.0 | 16.1 | 0.00 | 0.00 | 0.00 | 70 | 1012.4 |
| 20260507080002 | 13 | 323 | 4.8 | 17.7 | 0.00 | 0.00 | 0.00 | 69 | 1012.6 |
| 20260507074601 | 14 | 285 | 0.0 | 6.4 | 0.00 | 0.00 | 0.00 | 66 | 1012.5 |
| 20260507073107 | 14 | 149 | 3.2 | 19.3 | 0.00 | 0.00 | 0.00 | 65 | 1012.3 |
| 20260507071554 | 14 | 310 | 0.0 | 12.9 | 0.00 | 0.00 | 0.00 | 65 | 1012.3 |
| 20260507070057 | 15 | 307 | 3.2 | 11.3 | 0.00 | 0.00 | 0.00 | 63 | 1012.1 |
| 20260507064553 | 15 | 314 | 8.0 | 20.9 | 0.00 | 0.00 | 0.00 | 62 | 1012.0 |
| 20260507063048 | 15 | 321 | 4.8 | 16.1 | 0.00 | 0.00 | 0.00 | 61 | 1011.8 |
| 20260507061548 | 15 | 294 | 3.2 | 11.3 | 0.00 | 0.00 | 0.00 | 60 | 1011.8 |
| 20260507060053 | 15 | 283 | 0.0 | 8.0 | 0.00 | 0.00 | 0.00 | 59 | 1011.9 |
| 20260507054546 | 16 | 299 | 1.6 | 11.3 | 0.00 | 0.00 | 0.00 | 58 | 1011.9 |
| 20260507053045 | 16 | 283 | 0.0 | 4.8 | 0.00 | 0.00 | 0.00 | 56 | 1011.9 |
| 20260507051545 | 16 | 295 | 0.0 | 4.8 | 0.00 | 0.00 | 0.00 | 55 | 1011.8 |
| 20260507050044 | 16 | 253 | 0.0 | 0.0 | 0.00 | 0.00 | 0.00 | 56 | 1012.0 |
| 20260507044557 | 16 | 297 | 0.0 | 4.8 | 0.00 | 0.00 | 0.00 | 55 | 1011.8 |
| 20260507043043 | 17 | 302 | 0.0 | 16.1 | 0.00 | 0.00 | 0.00 | 55 | 1011.7 |
| 20260507041546 | 17 | 298 | 4.8 | 14.5 | 0.00 | 0.00 | 0.00 | 55 | 1011.3 |
| 20260507040045 | 17 | 292 | 4.8 | 16.1 | 0.00 | 0.00 | 0.00 | 54 | 1011.0 |
| 20260507034544 | 18 | 288 | 8.0 | 17.7 | 0.00 | 0.00 | 0.00 | 52 | 1010.7 |
| 20260507033050 | 18 | 271 | 6.4 | 19.3 | 0.00 | 0.00 | 0.00 | 51 | 1010.5 |
| 20260507031553 | 19 | 297 | 9.7 | 27.4 | 0.00 | 0.00 | 0.00 | 52 | 1010.4 |
| 20260507030100 | 20 | 279 | 11.3 | 27.4 | 0.00 | 0.00 | 0.00 | 52 | 1010.3 |
| 20260507024600 | 20 | 252 | 14.5 | 27.4 | 0.00 | 0.00 | 0.00 | 51 | 1010.0 |
| 20260507023038 | 21 | 283 | 14.5 | 33.8 | 0.00 | 0.00 | 0.00 | 50 | 1009.7 |
| 20260507021542 | 21 | 297 | 19.3 | 33.8 | 0.00 | 0.00 | 0.00 | 49 | 1009.5 |
| 20260507020051 | 21 | 290 | 14.5 | 25.7 | 0.00 | 0.00 | 0.00 | 47 | 1009.3 |
| 20260507014547 | 22 | 269 | 8.0 | 24.1 | 0.00 | 0.00 | 0.00 | 45 | 1009.3 |
| 20260507013040 | 22 | 334 | 11.3 | 24.1 | 0.00 | 0.00 | 0.00 | 45 | 1009.2 |
| 20260507011539 | 23 | 295 | 9.7 | 22.5 | 0.00 | 0.00 | 0.00 | 43 | 1009.2 |
| 20260507010041 | 23 | 302 | 11.3 | 27.4 | 0.00 | 0.00 | 0.00 | 42 | 1009.2 |
| 20260507004533 | 23 | 278 | 17.7 | 27.4 | 0.00 | 0.00 | 0.00 | 43 | 1009.1 |
| 20260507003033 | 23 | 297 | 16.1 | 27.4 | 0.00 | 0.00 | 0.00 | 44 | 1009.3 |
| 20260507001535 | 24 | 6 | 24.1 | 33.8 | 0.00 | 0.00 | 0.00 | 42 | 1009.0 |
| 20260507000033 | 25 | 288 | 19.3 | 29.0 | 0.00 | 0.00 | 0.00 | 41 | 1008.8 |
| 20260506234530 | 25 | 300 | 8.0 | 24.1 | 0.00 | 0.00 | 0.00 | 42 | 1009.0 |
| 20260506233029 | 25 | 319 | 14.5 | 24.1 | 0.00 | 0.00 | 0.00 | 39 | 1009.1 |
| 20260506231531 | 25 | 300 | 20.9 | 27.4 | 0.00 | 0.00 | 0.00 | 38 | 1009.2 |
| 20260506230028 | 25 | 298 | 12.9 | 30.6 | 0.00 | 0.00 | 0.00 | 40 | 1009.3 |
| 20260506224527 | 25 | 307 | 16.1 | 27.4 | 0.00 | 0.00 | 0.00 | 39 | 1009.3 |
| 20260506223026 | 26 | 287 | 12.9 | 24.1 | 0.00 | 0.00 | 0.00 | 38 | 1009.6 |
| 20260506221525 | 26 | 311 | 12.9 | 32.2 | 0.00 | 0.00 | 0.00 | 37 | 1009.7 |
| 20260506220025 | 26 | 280 | 17.7 | 32.2 | 0.00 | 0.00 | 0.00 | 36 | 1009.8 |
| 20260506214522 | 26 | 290 | 16.1 | 32.2 | 0.00 | 0.00 | 0.00 | 38 | 1009.9 |
| 20260506213021 | 26 | 286 | 16.1 | 27.4 | 0.00 | 0.00 | 0.00 | 37 | 1010.0 |
| 20260506211522 | 26 | 304 | 16.1 | 30.6 | 0.00 | 0.00 | 0.00 | 37 | 1010.3 |
| 20260506210018 | 26 | 293 | 16.1 | 30.6 | 0.00 | 0.00 | 0.00 | 37 | 1010.5 |
| 20260506204516 | 26 | 332 | 22.5 | 35.4 | 0.00 | 0.00 | 0.00 | 38 | 1010.4 |
| 20260506203011 | 26 | 314 | 19.3 | 32.2 | 0.00 | 0.00 | 0.00 | 38 | 1010.2 |
| 20260506201510 | 26 | 299 | 20.9 | 33.8 | 0.00 | 0.00 | 0.00 | 39 | 1010.3 |
| 20260506200006 | 26 | 322 | 20.9 | 32.2 | 0.00 | 0.00 | 0.00 | 38 | 1010.5 |
| 20260506194504 | 25 | 293 | 14.5 | 27.4 | 0.00 | 0.00 | 0.00 | 38 | 1010.6 |
| 20260506193059 | 24 | 307 | 14.5 | 25.7 | 0.00 | 0.00 | 0.00 | 43 | 1010.6 |
| 20260506191556 | 23 | 305 | 12.9 | 25.7 | 0.00 | 0.00 | 0.00 | 47 | 1010.8 |
| 20260506190055 | 22 | 314 | 12.9 | 30.6 | 0.00 | 0.00 | 0.00 | 48 | 1010.9 |
| 20260506184552 | 22 | 288 | 19.3 | 27.4 | 0.00 | 0.00 | 0.00 | 50 | 1011.5 |
| 20260506183049 | 21 | 270 | 17.7 | 29.0 | 0.00 | 0.00 | 0.00 | 51 | 1011.4 |
| 20260506181545 | 21 | 269 | 14.5 | 27.4 | 0.00 | 0.00 | 0.00 | 52 | 1011.7 |
| 20260506180046 | 21 | 311 | 16.1 | 25.7 | 0.00 | 0.00 | 0.00 | 53 | 1012.1 |
| 20260506174542 | 20 | 295 | 12.9 | 27.4 | 0.00 | 0.00 | 0.00 | 54 | 1012.2 |
| 20260506173108 | 20 | 311 | 14.5 | 27.4 | 0.00 | 0.00 | 0.00 | 55 | 1012.4 |
| 20260506171537 | 20 | 302 | 12.9 | 25.7 | 0.00 | 0.00 | 0.00 | 57 | 1012.4 |
| 20260506170040 | 19 | 283 | 11.3 | 27.4 | 0.00 | 0.00 | 0.00 | 57 | 1012.5 |
| 20260506164534 | 18 | 304 | 8.0 | 27.4 | 0.00 | 0.00 | 0.00 | 59 | 1012.2 |
| 20260506163036 | 18 | 267 | 14.5 | 22.5 | 0.00 | 0.00 | 0.00 | 59 | 1012.2 |
| 20260506161528 | 17 | 292 | 12.9 | 25.7 | 0.00 | 0.00 | 0.00 | 63 | 1012.2 |
| 20260506160026 | 17 | 263 | 11.3 | 24.1 | 0.00 | 0.00 | 0.00 | 63 | 1012.3 |
| 20260506154523 | 16 | 287 | 4.8 | 24.1 | 0.00 | 0.00 | 0.00 | 66 | 1012.3 |
| 20260506153021 | 16 | 276 | 12.9 | 24.1 | 0.00 | 0.00 | 0.00 | 68 | 1012.3 |
| 20260506151522 | 16 | 287 | 14.5 | 25.7 | 0.00 | 0.00 | 0.00 | 69 | 1012.3 |
| 20260506150016 | 15 | 309 | 11.3 | 19.3 | 0.00 | 0.00 | 0.00 | 70 | 1012.3 |